Observation data for Wolfforth on 10/18/2019      Previous  Date       Current Mesonet Observations  Soil Data  Daily Summary Page  Observations in Plain Language
KWOS 180500Z 17011G16KT 17/08 A2987 RMK A01 T01650075  RH  056%=      5-min Rain = 0
KWOS 180505Z 17012KT 17/07 A2987 RMK A01 T01650074  RH  056%=      5-min Rain = 0
KWOS 180510Z 17011KT 16/07 A2987 RMK A01 T01640073  RH  056%=      5-min Rain = 0
KWOS 180515Z 17011KT 16/07 A2987 RMK A01 T01640073  RH  056%=      5-min Rain = 0
KWOS 180520Z 17012KT 16/07 A2987 RMK A01 T01640072  RH  056%=      5-min Rain = 0
KWOS 180525Z 17012KT 16/07 A2986 RMK A01 T01640072  RH  056%=      5-min Rain = 0
KWOS 180530Z 17013G18KT 16/07 A2986 RMK A01 T01630072  RH  056%=      5-min Rain = 0
KWOS 180535Z 17012G17KT 16/07 A2986 RMK A01 T01630072  RH  056%=      5-min Rain = 0
KWOS 180540Z 17013KT 16/07 A2986 RMK A01 T01620072  RH  057%=      5-min Rain = 0
KWOS 180545Z 18013KT 16/07 A2986 RMK A01 T01620073  RH  057%=      5-min Rain = 0
KWOS 180550Z 17013KT 16/07 A2986 RMK A01 T01610073  RH  057%=      5-min Rain = 0
KWOS 180555Z 17012KT 16/07 A2986 RMK A01 T01600073  RH  058%=      5-min Rain = 0
KWOS 180600Z 17013KT 16/07 A2986 RMK A01 T01590074  RH  058%=      5-min Rain = 0
KWOS 180605Z 18012G17KT 16/08 A2986 RMK A01 T01590075  RH  059%=      5-min Rain = 0
KWOS 180610Z 17012G17KT 16/08 A2986 RMK A01 T01580076  RH  059%=      5-min Rain = 0
KWOS 180615Z 18012G17KT 16/08 A2986 RMK A01 T01590077  RH  060%=      5-min Rain = 0
KWOS 180620Z 18011KT 16/08 A2986 RMK A01 T01580078  RH  061%=      5-min Rain = 0
KWOS 180625Z 18011G16KT 16/08 A2986 RMK A01 T01570080  RH  062%=      5-min Rain = 0
KWOS 180630Z 18011KT 16/08 A2986 RMK A01 T01580081  RH  062%=      5-min Rain = 0
KWOS 180635Z 18011KT 16/08 A2986 RMK A01 T01570081  RH  062%=      5-min Rain = 0
KWOS 180640Z 18010KT 16/08 A2986 RMK A01 T01560083  RH  063%=      5-min Rain = 0
KWOS 180645Z 18010KT 16/08 A2986 RMK A01 T01560084  RH  064%=      5-min Rain = 0
KWOS 180650Z 18010KT 16/09 A2986 RMK A01 T01560085  RH  065%=      5-min Rain = 0
KWOS 180655Z 18010KT 16/09 A2986 RMK A01 T01560086  RH  065%=      5-min Rain = 0
KWOS 180700Z 18009G14KT 16/09 A2986 RMK A01 T01550087  RH  066%=      5-min Rain = 0
KWOS 180705Z 17009KT 15/09 A2985 RMK A01 T01540087  RH  066%=      5-min Rain = 0
KWOS 180710Z 17009KT 15/09 A2985 RMK A01 T01520088  RH  067%=      5-min Rain = 0
KWOS 180715Z 17008KT 15/09 A2985 RMK A01 T01520088  RH  068%=      5-min Rain = 0
KWOS 180720Z 17008KT 15/09 A2985 RMK A01 T01510088  RH  068%=      5-min Rain = 0
KWOS 180725Z 17007KT 15/09 A2985 RMK A01 T01480087  RH  069%=      5-min Rain = 0
KWOS 180730Z 17007KT 15/09 A2985 RMK A01 T01470086  RH  069%=      5-min Rain = 0
KWOS 180735Z 17007KT 14/09 A2985 RMK A01 T01440086  RH  070%=      5-min Rain = 0
KWOS 180740Z 17006KT 14/09 A2985 RMK A01 T01420085  RH  071%=      5-min Rain = 0
KWOS 180745Z 17006KT 14/08 A2985 RMK A01 T01400084  RH  071%=      5-min Rain = 0
KWOS 180750Z 17007KT 14/08 A2985 RMK A01 T01390084  RH  072%=      5-min Rain = 0
KWOS 180755Z 17006KT 14/08 A2985 RMK A01 T01380084  RH  072%=      5-min Rain = 0
KWOS 180800Z 17005KT 14/08 A2985 RMK A01 T01350083  RH  073%=      5-min Rain = 0
KWOS 180805Z 17005KT 13/08 A2984 RMK A01 T01330082  RH  073%=      5-min Rain = 0
KWOS 180810Z 17006KT 13/08 A2984 RMK A01 T01310082  RH  074%=      5-min Rain = 0
KWOS 180815Z 17007KT 13/08 A2984 RMK A01 T01310082  RH  074%=      5-min Rain = 0
KWOS 180820Z 17007KT 13/08 A2984 RMK A01 T01310082  RH  074%=      5-min Rain = 0
KWOS 180825Z 17006KT 13/08 A2984 RMK A01 T01290081  RH  075%=      5-min Rain = 0
KWOS 180830Z 18005KT 13/08 A2984 RMK A01 T01280081  RH  075%=      5-min Rain = 0
KWOS 180835Z 19005KT 13/08 A2984 RMK A01 T01270081  RH  076%=      5-min Rain = 0
KWOS 180840Z 20004KT 13/08 A2984 RMK A01 T01260081  RH  076%=      5-min Rain = 0
KWOS 180845Z 18005KT 12/08 A2983 RMK A01 T01240080  RH  076%=      5-min Rain = 0
KWOS 180850Z 17006KT 12/08 A2983 RMK A01 T01210080  RH  078%=      5-min Rain = 0
KWOS 180855Z 17006KT 12/08 A2983 RMK A01 T01210080  RH  078%=      5-min Rain = 0
KWOS 180900Z 16006KT 12/08 A2982 RMK A01 T01220080  RH  078%=      5-min Rain = 0
KWOS 180905Z 18006KT 12/08 A2983 RMK A01 T01220080  RH  078%=      5-min Rain = 0
KWOS 180910Z 19005KT 12/08 A2983 RMK A01 T01200079  RH  078%=      5-min Rain = 0
KWOS 180915Z 20006KT 12/08 A2983 RMK A01 T01200080  RH  079%=      5-min Rain = 0
KWOS 180920Z 20006KT 12/08 A2983 RMK A01 T01180079  RH  079%=      5-min Rain = 0
KWOS 180925Z 20006KT 12/08 A2983 RMK A01 T01180080  RH  080%=      5-min Rain = 0
KWOS 180930Z 18007KT 12/08 A2982 RMK A01 T01160079  RH  080%=      5-min Rain = 0
KWOS 180935Z 18008KT 12/08 A2982 RMK A01 T01160082  RH  082%=      5-min Rain = 0
KWOS 180940Z 19008KT 12/08 A2982 RMK A01 T01180083  RH  081%=      5-min Rain = 0
KWOS 180945Z 19008KT 12/08 A2982 RMK A01 T01180084  RH  082%=      5-min Rain = 0
KWOS 180950Z 19008KT 12/09 A2982 RMK A01 T01190085  RH  082%=      5-min Rain = 0
KWOS 180955Z 19007KT 12/09 A2982 RMK A01 T01190085  RH  082%=      5-min Rain = 0
KWOS 181000Z 19007KT 12/09 A2982 RMK A01 T01200087  RH  083%=      5-min Rain = 0
KWOS 181005Z 19008KT 12/09 A2982 RMK A01 T01190087  RH  083%=      5-min Rain = 0
KWOS 181010Z 19008KT 12/09 A2982 RMK A01 T01190087  RH  083%=      5-min Rain = 0
KWOS 181015Z 19008KT 12/09 A2982 RMK A01 T01190088  RH  084%=      5-min Rain = 0
KWOS 181020Z 19008KT 12/09 A2982 RMK A01 T01190088  RH  084%=      5-min Rain = 0
KWOS 181025Z 19008KT 12/09 A2982 RMK A01 T01190088  RH  084%=      5-min Rain = 0
KWOS 181030Z 19008KT 12/09 A2982 RMK A01 T01170088  RH  085%=      5-min Rain = 0
KWOS 181035Z 19008KT 12/09 A2982 RMK A01 T01170088  RH  085%=      5-min Rain = 0
KWOS 181040Z 19008KT 12/09 A2982 RMK A01 T01170089  RH  085%=      5-min Rain = 0
KWOS 181045Z 19008KT 12/09 A2982 RMK A01 T01180089  RH  085%=      5-min Rain = 0
KWOS 181050Z 19009KT 12/09 A2982 RMK A01 T01180090  RH  085%=      5-min Rain = 0
KWOS 181055Z 19009KT 12/09 A2982 RMK A01 T01180090  RH  085%=      5-min Rain = 0
KWOS 181100Z 19009KT 12/09 A2981 RMK A01 T01180090  RH  086%=      5-min Rain = 0
KWOS 181105Z 19009KT 12/09 A2981 RMK A01 T01170090  RH  086%=      5-min Rain = 0
KWOS 181110Z 19008KT 12/09 A2981 RMK A01 T01170090  RH  087%=      5-min Rain = 0
KWOS 181115Z 19009KT 12/09 A2981 RMK A01 T01170091  RH  086%=      5-min Rain = 0
KWOS 181120Z 19009KT 12/09 A2981 RMK A01 T01180091  RH  086%=      5-min Rain = 0
KWOS 181125Z 20009KT 12/09 A2981 RMK A01 T01170091  RH  087%=      5-min Rain = 0
KWOS 181130Z 20010KT 12/09 A2981 RMK A01 T01180092  RH  086%=      5-min Rain = 0
KWOS 181135Z 20009KT 12/09 A2982 RMK A01 T01190092  RH  086%=      5-min Rain = 0
KWOS 181140Z 20009KT 12/09 A2982 RMK A01 T01200092  RH  086%=      5-min Rain = 0
KWOS 181145Z 19009KT 12/09 A2981 RMK A01 T01200093  RH  086%=      5-min Rain = 0
KWOS 181150Z 19009KT 12/09 A2981 RMK A01 T01190093  RH  086%=      5-min Rain = 0
KWOS 181155Z 19008KT 12/09 A2981 RMK A01 T01180092  RH  087%=      5-min Rain = 0
KWOS 181200Z 19008KT 12/09 A2981 RMK A01 T01180092  RH  087%=      5-min Rain = 0
KWOS 181205Z 19008KT 12/09 A2981 RMK A01 T01170092  RH  087%=      5-min Rain = 0
KWOS 181210Z 19008KT 12/09 A2981 RMK A01 T01170092  RH  087%=      5-min Rain = 0
KWOS 181215Z 19008KT 12/09 A2981 RMK A01 T01160092  RH  088%=      5-min Rain = 0
KWOS 181220Z 19008KT 12/09 A2981 RMK A01 T01150091  RH  088%=      5-min Rain = 0
KWOS 181225Z 19008KT 12/09 A2981 RMK A01 T01150091  RH  088%=      5-min Rain = 0
KWOS 181230Z 19008KT 11/09 A2981 RMK A01 T01140091  RH  088%=      5-min Rain = 0
KWOS 181235Z 19008KT 11/09 A2981 RMK A01 T01140091  RH  088%=      5-min Rain = 0
KWOS 181240Z 19008KT 11/09 A2981 RMK A01 T01140091  RH  088%=      5-min Rain = 0
KWOS 181245Z 19009KT 12/09 A2981 RMK A01 T01160092  RH  087%=      5-min Rain = 0
KWOS 181250Z 19008KT 12/09 A2981 RMK A01 T01160091  RH  087%=      5-min Rain = 0
KWOS 181255Z 19008KT 12/09 A2981 RMK A01 T01170091  RH  087%=      5-min Rain = 0
KWOS 181300Z 19009KT 12/09 A2981 RMK A01 T01180092  RH  087%=      5-min Rain = 0
KWOS 181305Z 19009KT 12/09 A2981 RMK A01 T01180091  RH  086%=      5-min Rain = 0
KWOS 181310Z 19008KT 12/09 A2981 RMK A01 T01180091  RH  086%=      5-min Rain = 0
KWOS 181315Z 19009KT 12/09 A2981 RMK A01 T01190091  RH  086%=      5-min Rain = 0
KWOS 181320Z 19009KT 12/09 A2981 RMK A01 T01200092  RH  086%=      5-min Rain = 0
KWOS 181325Z 19008KT 12/09 A298 RMK A01 T01200092  RH  085%=      5-min Rain = 0
KWOS 181330Z 20010KT 12/09 A298 RMK A01 T01220092  RH  085%=      5-min Rain = 0
KWOS 181335Z 19009KT 12/09 A298 RMK A01 T01230092  RH  084%=      5-min Rain = 0
KWOS 181340Z 20010KT 13/09 A2981 RMK A01 T01250092  RH  083%=      5-min Rain = 0
KWOS 181345Z 19009G14KT 13/09 A2981 RMK A01 T01260093  RH  083%=      5-min Rain = 0
KWOS 181350Z 19010KT 13/09 A2981 RMK A01 T01280093  RH  082%=      5-min Rain = 0
KWOS 181355Z 19010KT 13/09 A2981 RMK A01 T01290094  RH  081%=      5-min Rain = 0
KWOS 181400Z 19010G15KT 13/09 A2981 RMK A01 T01320094  RH  080%=      5-min Rain = 0
KWOS 181405Z 19012KT 13/09 A2981 RMK A01 T01330094  RH  080%=      5-min Rain = 0
KWOS 181410Z 20012KT 14/09 A2981 RMK A01 T01350094  RH  079%=      5-min Rain = 0
KWOS 181415Z 20011G17KT 14/10 A2981 RMK A01 T01380095  RH  078%=      5-min Rain = 0
KWOS 181420Z 20014G19KT 14/10 A2981 RMK A01 T01390095  RH  077%=      5-min Rain = 0
KWOS 181425Z 20015KT 14/10 A2981 RMK A01 T01400095  RH  076%=      5-min Rain = 0
KWOS 181430Z 20013G19KT 14/10 A2981 RMK A01 T01440096  RH  075%=      5-min Rain = 0
KWOS 181435Z 20016G22KT 15/10 A2981 RMK A01 T01470096  RH  074%=      5-min Rain = 0
KWOS 181440Z 20012G18KT 15/10 A2981 RMK A01 T01520097  RH  072%=      5-min Rain = 0
KWOS 181445Z 20013KT 15/10 A2981 RMK A01 T01540097  RH  071%=      5-min Rain = 0
KWOS 181450Z 20014KT 16/10 A2981 RMK A01 T01560096  RH  070%=      5-min Rain = 0
KWOS 181455Z 20014KT 16/10 A2981 RMK A01 T01580096  RH  069%=      5-min Rain = 0
KWOS 181500Z 20012KT 16/10 A2981 RMK A01 T01600097  RH  068%=      5-min Rain = 0
KWOS 181505Z 20013KT 16/10 A298 RMK A01 T01640097  RH  067%=      5-min Rain = 0
KWOS 181510Z 20013G18KT 17/10 A298 RMK A01 T01690099  RH  065%=      5-min Rain = 0
KWOS 181515Z 20014KT 17/10 A298 RMK A01 T01720098  RH  064%=      5-min Rain = 0
KWOS 181520Z 19013KT 18/10 A298 RMK A01 T01750099  RH  063%=      5-min Rain = 0
KWOS 181525Z 19012KT 17/10 A298 RMK A01 T01740099  RH  063%=      5-min Rain = 0
KWOS 181530Z 19013KT 18/10 A298 RMK A01 T01750097  RH  062%=      5-min Rain = 0
KWOS 181535Z 19012KT 18/10 A298 RMK A01 T01750098  RH  063%=      5-min Rain = 0
KWOS 181540Z 19013KT 19/10 A298 RMK A01 T01860099  RH  059%=      5-min Rain = 0
KWOS 181545Z 20014KT 19/10 A2979 RMK A01 T01900099  RH  057%=      5-min Rain = 0
KWOS 181550Z 20011KT 20/10 A2979 RMK A01 T01970101  RH  056%=      5-min Rain = 0
KWOS 181555Z 20012G18KT 21/10 A2979 RMK A01 T02050101  RH  053%=      5-min Rain = 0
KWOS 181600Z 20014KT 21/10 A2979 RMK A01 T02050100  RH  052%=      5-min Rain = 0
KWOS 181605Z 20013G18KT 21/10 A2979 RMK A01 T02080101  RH  052%=      5-min Rain = 0
KWOS 181610Z 20014G19KT 22/10 A2978 RMK A01 T02150101  RH  050%=      5-min Rain = 0
KWOS 181615Z 20015KT 22/10 A2978 RMK A01 T02150101  RH  050%=      5-min Rain = 0
KWOS 181620Z 21015G20KT 22/10 A2978 RMK A01 T02170101  RH  049%=      5-min Rain = 0
KWOS 181625Z 21015G22KT 22/10 A2978 RMK A01 T02190102  RH  049%=      5-min Rain = 0
KWOS 181630Z 21015G21KT 22/10 A2978 RMK A01 T02200102  RH  049%=      5-min Rain = 0
KWOS 181635Z 21014KT 22/10 A2978 RMK A01 T02230103  RH  048%=      5-min Rain = 0
KWOS 181640Z 21012G17KT 23/11 A2978 RMK A01 T02280105  RH  047%=      5-min Rain = 0
KWOS 181645Z 22014G20KT 23/11 A2978 RMK A01 T02300105  RH  047%=      5-min Rain = 0
KWOS 181650Z 21013G18KT 23/11 A2978 RMK A01 T02300105  RH  047%=      5-min Rain = 0
KWOS 181655Z 21013G18KT 24/11 A2978 RMK A01 T02360107  RH  046%=      5-min Rain = 0
KWOS 181700Z 21013G18KT 24/11 A2978 RMK A01 T02380107  RH  045%=      5-min Rain = 0
KWOS 181705Z 20013KT 24/11 A2978 RMK A01 T02390107  RH  045%=      5-min Rain = 0
KWOS 181710Z 21014G19KT 24/11 A2977 RMK A01 T02430108  RH  044%=      5-min Rain = 0
KWOS 181715Z 22015KT 24/11 A2977 RMK A01 T02440109  RH  044%=      5-min Rain = 0
KWOS 181720Z 22013G19KT 25/11 A2977 RMK A01 T02470109  RH  043%=      5-min Rain = 0
KWOS 181725Z 22014G19KT 25/11 A2977 RMK A01 T02480109  RH  043%=      5-min Rain = 0
KWOS 181730Z 21013G18KT 25/11 A2977 RMK A01 T02530110  RH  042%=      5-min Rain = 0
KWOS 181735Z 21015G20KT 26/11 A2976 RMK A01 T02560111  RH  041%=      5-min Rain = 0
KWOS 181740Z 22014G22KT 26/11 A2976 RMK A01 T02590112  RH  041%=      5-min Rain = 0
KWOS 181745Z 21013G19KT 26/11 A2976 RMK A01 T02620112  RH  041%=      5-min Rain = 0
KWOS 181750Z 22014G20KT 27/11 A2975 RMK A01 T02650112  RH  040%=      5-min Rain = 0
KWOS 181755Z 22013G22KT 27/11 A2975 RMK A01 T02710113  RH  039%=      5-min Rain = 0
KWOS 181800Z 22014G19KT 27/11 A2975 RMK A01 T02710112  RH  038%=      5-min Rain = 0
KWOS 181805Z 22014G20KT 28/11 A2974 RMK A01 T02780112  RH  037%=      5-min Rain = 0
KWOS 181810Z 22014G21KT 28/11 A2974 RMK A01 T02800110  RH  036%=      5-min Rain = 0
KWOS 181815Z 22015G21KT 28/11 A2973 RMK A01 T02830108  RH  035%=      5-min Rain = 0
KWOS 181820Z 23017G24KT 29/10 A2973 RMK A01 T02860100  RH  032%=      5-min Rain = 0
KWOS 181825Z 22019G26KT 29/09 A2973 RMK A01 T02860093  RH  031%=      5-min Rain = 0
KWOS 181830Z 23016G23KT 29/09 A2973 RMK A01 T02910089  RH  029%=      5-min Rain = 0
KWOS 181835Z 24018KT 29/09 A2972 RMK A01 T02890091  RH  030%=      5-min Rain = 0
KWOS 181840Z 24017G25KT 29/09 A2972 RMK A01 T02880086  RH  029%=      5-min Rain = 0
KWOS 181845Z 24017G24KT 29/08 A2972 RMK A01 T02900084  RH  028%=      5-min Rain = 0
KWOS 181850Z 24016G24KT 29/09 A2971 RMK A01 T02890089  RH  029%=      5-min Rain = 0
KWOS 181855Z 23018G24KT 29/09 A2971 RMK A01 T02880090  RH  030%=      5-min Rain = 0
KWOS 181900Z 23017G24KT 29/10 A2971 RMK A01 T02910095  RH  030%=      5-min Rain = 0
KWOS 181905Z 24016G22KT 29/10 A297 RMK A01 T02880097  RH  031%=      5-min Rain = 0
KWOS 181910Z 23017G23KT 29/10 A297 RMK A01 T02890095  RH  031%=      5-min Rain = 0
KWOS 181915Z 23018G26KT 29/08 A2969 RMK A01 T02920084  RH  028%=      5-min Rain = 0
KWOS 181920Z 24018G26KT 29/07 A2969 RMK A01 T02940073  RH  026%=      5-min Rain = 0
KWOS 181925Z 23018G25KT 30/07 A2969 RMK A01 T02950067  RH  024%=      5-min Rain = 0
KWOS 181930Z 23017G28KT 30/07 A2968 RMK A01 T02960065  RH  024%=      5-min Rain = 0
KWOS 181935Z 23020G28KT 30/06 A2968 RMK A01 T02970056  RH  022%=      5-min Rain = 0
KWOS 181940Z 24019G25KT 30/05 A2968 RMK A01 T02980054  RH  022%=      5-min Rain = 0
KWOS 181945Z 23017G25KT 30/06 A2968 RMK A01 T03000058  RH  022%=      5-min Rain = 0
KWOS 181950Z 23018G28KT 30/05 A2967 RMK A01 T03010051  RH  021%=      5-min Rain = 0
KWOS 181955Z 24020G25KT 30/03 A2967 RMK A01 T02990030  RH  018%=      5-min Rain = 0
KWOS 182000Z 24019G24KT 30/04 A2967 RMK A01 T03010037  RH  019%=      5-min Rain = 0
KWOS 182005Z 23021G31KT 30/05 A2967 RMK A01 T02990049  RH  021%=      5-min Rain = 0
KWOS 182010Z 24021G30KT 30/04 A2967 RMK A01 T02980040  RH  020%=      5-min Rain = 0
KWOS 182015Z 24020G27KT 30/05 A2967 RMK A01 T02970049  RH  021%=      5-min Rain = 0
KWOS 182020Z 24020G28KT 30/06 A2967 RMK A01 T02980059  RH  023%=      5-min Rain = 0
KWOS 182025Z 24017G26KT 30/06 A2967 RMK A01 T02960064  RH  024%=      5-min Rain = 0
KWOS 182030Z 24018KT 30/07 A2967 RMK A01 T02960065  RH  024%=      5-min Rain = 0
KWOS 182035Z 24020G26KT 30/06 A2967 RMK A01 T02970061  RH  023%=      5-min Rain = 0
KWOS 182040Z 23018G24KT 30/06 A2966 RMK A01 T02980058  RH  023%=      5-min Rain = 0
KWOS 182045Z 23017G22KT 30/05 A2966 RMK A01 T02950052  RH  022%=      5-min Rain = 0
KWOS 182050Z 23020G27KT 30/06 A2966 RMK A01 T02970063  RH  023%=      5-min Rain = 0
KWOS 182055Z 24019G25KT 30/07 A2966 RMK A01 T02950068  RH  025%=      5-min Rain = 0
KWOS 182100Z 23018G25KT 29/07 A2966 RMK A01 T02900071  RH  026%=      5-min Rain = 0
KWOS 182105Z 25019G27KT 29/07 A2966 RMK A01 T02900071  RH  026%=      5-min Rain = 0
KWOS 182110Z 25018G24KT 30/07 A2966 RMK A01 T02950070  RH  025%=      5-min Rain = 0
KWOS 182115Z 24017G29KT 30/07 A2966 RMK A01 T02960072  RH  025%=      5-min Rain = 0
KWOS 182120Z 24019G25KT 29/07 A2966 RMK A01 T02930069  RH  025%=      5-min Rain = 0
KWOS 182125Z 25016G23KT 29/07 A2966 RMK A01 T02920072  RH  026%=      5-min Rain = 0
KWOS 182130Z 24014G23KT 30/07 A2966 RMK A01 T02950072  RH  025%=      5-min Rain = 0
KWOS 182135Z 24015G21KT 29/07 A2966 RMK A01 T02930072  RH  026%=      5-min Rain = 0
KWOS 182140Z 24017G23KT 29/07 A2966 RMK A01 T02870068  RH  026%=      5-min Rain = 0
KWOS 182145Z 24016G26KT 29/07 A2966 RMK A01 T02930070  RH  025%=      5-min Rain = 0
KWOS 182150Z 25016G23KT 30/07 A2966 RMK A01 T02960071  RH  025%=      5-min Rain = 0
KWOS 182155Z 25014G20KT 29/07 A2966 RMK A01 T02920069  RH  025%=      5-min Rain = 0
KWOS 182200Z 24015G21KT 29/07 A2966 RMK A01 T02890069  RH  026%=      5-min Rain = 0
KWOS 182205Z 24012G17KT 30/07 A2966 RMK A01 T02950070  RH  025%=      5-min Rain = 0
KWOS 182210Z 23015KT 29/07 A2966 RMK A01 T02920068  RH  025%=      5-min Rain = 0
KWOS 182215Z 23015G20KT 29/07 A2966 RMK A01 T02890068  RH  025%=      5-min Rain = 0
KWOS 182220Z 23017G25KT 29/06 A2966 RMK A01 T02860064  RH  025%=      5-min Rain = 0
KWOS 182225Z 24017KT 29/06 A2966 RMK A01 T02900059  RH  024%=      5-min Rain = 0
KWOS 182230Z 25014G19KT 29/06 A2966 RMK A01 T02870057  RH  024%=      5-min Rain = 0
KWOS 182235Z 25015G20KT 29/06 A2966 RMK A01 T02900055  RH  023%=      5-min Rain = 0
KWOS 182240Z 25016G23KT 29/06 A2966 RMK A01 T02910057  RH  023%=      5-min Rain = 0
KWOS 182245Z 23015G20KT 29/06 A2966 RMK A01 T02910055  RH  023%=      5-min Rain = 0
KWOS 182250Z 22015G20KT 29/06 A2966 RMK A01 T02910062  RH  024%=      5-min Rain = 0
KWOS 182255Z 25015G21KT 29/06 A2966 RMK A01 T02900062  RH  024%=      5-min Rain = 0
KWOS 182300Z 25016G21KT 29/06 A2966 RMK A01 T02860056  RH  024%=      5-min Rain = 0
KWOS 182305Z 23017G23KT 28/06 A2966 RMK A01 T02830056  RH  024%=      5-min Rain = 0
KWOS 182310Z 24016G21KT 28/06 A2966 RMK A01 T02790057  RH  025%=      5-min Rain = 0
KWOS 182315Z 23012G18KT 28/06 A2966 RMK A01 T02790057  RH  025%=      5-min Rain = 0
KWOS 182320Z 23012G19KT 28/06 A2966 RMK A01 T02830057  RH  024%=      5-min Rain = 0
KWOS 182325Z 23016G21KT 28/05 A2966 RMK A01 T02830053  RH  024%=      5-min Rain = 0
KWOS 182330Z 24015KT 28/05 A2966 RMK A01 T02830054  RH  024%=      5-min Rain = 0
KWOS 182335Z 24014KT 28/05 A2966 RMK A01 T02790052  RH  024%=      5-min Rain = 0
KWOS 182340Z 25015KT 28/05 A2966 RMK A01 T02760046  RH  023%=      5-min Rain = 0
KWOS 182345Z 25013KT 27/05 A2967 RMK A01 T02740046  RH  024%=      5-min Rain = 0
KWOS 182350Z 25012G18KT 27/05 A2967 RMK A01 T02720047  RH  024%=      5-min Rain = 0
KWOS 182355Z 25012G20KT 27/05 A2967 RMK A01 T02720048  RH  024%=      5-min Rain = 0
KWOS 190000Z 24012KT 27/05 A2967 RMK A01 T02690048  RH  025%=      5-min Rain = 0
KWOS 190005Z 24010KT 27/05 A2967 RMK A01 T02670047  RH  025%=      5-min Rain = 0
KWOS 190010Z 24009KT 26/05 A2967 RMK A01 T02640047  RH  025%=      5-min Rain = 0
KWOS 190015Z 25010KT 26/04 A2967 RMK A01 T02610043  RH  025%=      5-min Rain = 0
KWOS 190020Z 24012G17KT 26/04 A2967 RMK A01 T02600041  RH  025%=      5-min Rain = 0
KWOS 190025Z 25014KT 26/04 A2967 RMK A01 T02600043  RH  025%=      5-min Rain = 0
KWOS 190030Z 24013KT 26/05 A2967 RMK A01 T02580045  RH  026%=      5-min Rain = 0
KWOS 190035Z 24012KT 26/05 A2968 RMK A01 T02550046  RH  027%=      5-min Rain = 0
KWOS 190040Z 24012KT 25/05 A2968 RMK A01 T02540047  RH  027%=      5-min Rain = 0
KWOS 190045Z 25018G32KT 26/04 A2969 RMK A01 T02560042  RH  026%=      5-min Rain = 0
KWOS 190050Z 25030G40KT 25/05 A297 RMK A01 T02490050  RH  029%=      5-min Rain = 0
KWOS 190055Z 23027G37KT 23/08 A2972 RMK A01 T02270080  RH  040%=      5-min Rain = 0
KWOS 190100Z 23016G28KT 21/10 A2973 RMK A01 T02130095  RH  048%=      5-min Rain = 0
KWOS 190105Z 21009KT 21/10 A2973 RMK A01 T02090097  RH  050%=      5-min Rain = 0
KWOS 190110Z 23004KT 21/10 A2974 RMK A01 T02050101  RH  053%=      5-min Rain = 0
KWOS 190115Z 29009G16KT 21/09 A2975 RMK A01 T02070094  RH  050%=      5-min Rain = 0
KWOS 190120Z 28010KT 22/08 A2975 RMK A01 T02180081  RH  042%=      5-min Rain = 0
KWOS 190125Z 28011KT 22/07 A2976 RMK A01 T02210071  RH  039%=      5-min Rain = 0
KWOS 190130Z 28012KT 22/06 A2976 RMK A01 T02240060  RH  035%=      5-min Rain = 0
KWOS 190135Z 27012G17KT 23/06 A2976 RMK A01 T02250059  RH  035%=      5-min Rain = 0
KWOS 190140Z 29011G16KT 22/06 A2976 RMK A01 T02240058  RH  035%=      5-min Rain = 0
KWOS 190145Z 30013G18KT 22/07 A2975 RMK A01 T02210067  RH  038%=      5-min Rain = 0
KWOS 190150Z 31012G17KT 22/07 A2974 RMK A01 T02150072  RH  041%=      5-min Rain = 0
KWOS 190155Z 30012G17KT 22/07 A2975 RMK A01 T02170065  RH  038%=      5-min Rain = 0
KWOS 190200Z 29012KT 22/06 A2976 RMK A01 T02170061  RH  037%=      5-min Rain = 0
KWOS 190205Z 29012KT 22/06 A2976 RMK A01 T02160059  RH  037%=      5-min Rain = 0
KWOS 190210Z 28009KT 21/06 A2976 RMK A01 T02130059  RH  038%=      5-min Rain = 0
KWOS 190215Z 29009KT 21/06 A2976 RMK A01 T02100058  RH  038%=      5-min Rain = 0
KWOS 190220Z 29008KT 21/06 A2976 RMK A01 T02080058  RH  038%=      5-min Rain = 0
KWOS 190225Z 29008KT 21/06 A2976 RMK A01 T02050056  RH  039%=      5-min Rain = 0
KWOS 190230Z 29007KT 20/06 A2976 RMK A01 T02030055  RH  039%=      5-min Rain = 0
KWOS 190235Z 28007KT 20/06 A2976 RMK A01 T01990055  RH  040%=      5-min Rain = 0
KWOS 190240Z 27006KT 20/05 A2976 RMK A01 T01950054  RH  041%=      5-min Rain = 0
KWOS 190245Z 27006KT 19/05 A2976 RMK A01 T01900054  RH  042%=      5-min Rain = 0
KWOS 190250Z 27007KT 19/05 A2976 RMK A01 T01860053  RH  043%=      5-min Rain = 0
KWOS 190255Z 27006KT 18/05 A2976 RMK A01 T01840053  RH  043%=      5-min Rain = 0
KWOS 190300Z 27005KT 18/05 A2976 RMK A01 T01810053  RH  044%=      5-min Rain = 0
KWOS 190305Z 27005KT 18/05 A2976 RMK A01 T01770053  RH  045%=      5-min Rain = 0
KWOS 190310Z 26005KT 18/05 A2976 RMK A01 T01750053  RH  046%=      5-min Rain = 0
KWOS 190315Z 26005KT 17/05 A2976 RMK A01 T01700053  RH  047%=      5-min Rain = 0
KWOS 190320Z 26005KT 17/05 A2976 RMK A01 T01660053  RH  048%=      5-min Rain = 0
KWOS 190325Z 26005KT 16/05 A2976 RMK A01 T01620053  RH  050%=      5-min Rain = 0
KWOS 190330Z 25006KT 16/05 A2976 RMK A01 T01590054  RH  051%=      5-min Rain = 0
KWOS 190335Z 25007KT 16/06 A2976 RMK A01 T01590055  RH  051%=      5-min Rain = 0
KWOS 190340Z 24006KT 16/06 A2976 RMK A01 T01590055  RH  051%=      5-min Rain = 0
KWOS 190345Z 25008KT 16/06 A2977 RMK A01 T01590056  RH  051%=      5-min Rain = 0
KWOS 190350Z 26008KT 16/06 A2977 RMK A01 T01610057  RH  051%=      5-min Rain = 0
KWOS 190355Z 26008KT 17/06 A2977 RMK A01 T01660057  RH  049%=      5-min Rain = 0
KWOS 190400Z 26009KT 17/06 A2977 RMK A01 T01710057  RH  048%=      5-min Rain = 0
KWOS 190405Z 26009KT 17/06 A2977 RMK A01 T01730057  RH  047%=      5-min Rain = 0
KWOS 190410Z 26009KT 17/06 A2977 RMK A01 T01730057  RH  048%=      5-min Rain = 0
KWOS 190415Z 26009KT 17/06 A2977 RMK A01 T01720058  RH  048%=      5-min Rain = 0
KWOS 190420Z 25008KT 17/06 A2977 RMK A01 T01700058  RH  049%=      5-min Rain = 0
KWOS 190425Z 26009KT 17/06 A2977 RMK A01 T01670059  RH  050%=      5-min Rain = 0
KWOS 190430Z 26008KT 17/06 A2977 RMK A01 T01670059  RH  050%=      5-min Rain = 0
KWOS 190435Z 26007KT 16/06 A2977 RMK A01 T01640059  RH  051%=      5-min Rain = 0
KWOS 190440Z 26008KT 16/06 A2977 RMK A01 T01620059  RH  052%=      5-min Rain = 0
KWOS 190445Z 26008KT 16/06 A2978 RMK A01 T01590059  RH  052%=      5-min Rain = 0
KWOS 190450Z 26008KT 16/06 A2977 RMK A01 T01590058  RH  052%=      5-min Rain = 0
KWOS 190455Z 26008KT 16/06 A2977 RMK A01 T01590059  RH  052%=      5-min Rain = 0

Page generated in 0.0095 seconds.